sensor_id;sensor_type;location;lat;lon;timestamp;P1;durP1;ratioP1;P2;durP2;ratioP2
21034;SDS011;10676;50.848;3.272;2023-06-26T00:00:57;8.95;;;3.70;;
21034;SDS011;10676;50.848;3.272;2023-06-26T00:03:23;9.65;;;3.60;;
21034;SDS011;10676;50.848;3.272;2023-06-26T00:05:49;8.27;;;3.83;;
21034;SDS011;10676;50.848;3.272;2023-06-26T00:08:15;9.80;;;3.60;;
21034;SDS011;10676;50.848;3.272;2023-06-26T00:10:41;11.55;;;4.00;;
21034;SDS011;10676;50.848;3.272;2023-06-26T00:13:07;10.70;;;3.92;;
21034;SDS011;10676;50.848;3.272;2023-06-26T00:15:32;8.55;;;3.65;;
21034;SDS011;10676;50.848;3.272;2023-06-26T00:17:58;9.40;;;3.90;;
21034;SDS011;10676;50.848;3.272;2023-06-26T00:20:24;8.77;;;3.92;;
21034;SDS011;10676;50.848;3.272;2023-06-26T00:22:52;7.57;;;3.75;;
21034;SDS011;10676;50.848;3.272;2023-06-26T00:25:18;9.05;;;4.10;;
21034;SDS011;10676;50.848;3.272;2023-06-26T00:27:47;11.50;;;4.35;;
21034;SDS011;10676;50.848;3.272;2023-06-26T00:30:13;7.55;;;3.80;;
21034;SDS011;10676;50.848;3.272;2023-06-26T00:32:39;10.70;;;3.90;;
21034;SDS011;10676;50.848;3.272;2023-06-26T00:35:04;12.43;;;4.70;;
21034;SDS011;10676;50.848;3.272;2023-06-26T00:37:30;10.00;;;4.05;;
21034;SDS011;10676;50.848;3.272;2023-06-26T00:39:56;13.88;;;4.45;;
21034;SDS011;10676;50.848;3.272;2023-06-26T00:42:21;10.05;;;4.68;;
21034;SDS011;10676;50.848;3.272;2023-06-26T00:44:47;12.93;;;4.43;;
21034;SDS011;10676;50.848;3.272;2023-06-26T00:47:14;13.65;;;4.75;;
21034;SDS011;10676;50.848;3.272;2023-06-26T00:49:43;9.98;;;4.07;;
21034;SDS011;10676;50.848;3.272;2023-06-26T00:52:09;9.07;;;4.18;;
21034;SDS011;10676;50.848;3.272;2023-06-26T00:54:35;14.20;;;4.53;;
21034;SDS011;10676;50.848;3.272;2023-06-26T00:57:00;13.85;;;4.63;;
21034;SDS011;10676;50.848;3.272;2023-06-26T00:59:26;11.50;;;4.32;;
21034;SDS011;10676;50.848;3.272;2023-06-26T01:01:54;8.93;;;4.18;;
21034;SDS011;10676;50.848;3.272;2023-06-26T01:04:20;15.82;;;4.28;;
21034;SDS011;10676;50.848;3.272;2023-06-26T01:06:48;12.88;;;4.53;;
21034;SDS011;10676;50.848;3.272;2023-06-26T01:09:20;15.00;;;4.10;;
21034;SDS011;10676;50.848;3.272;2023-06-26T01:11:49;15.48;;;4.43;;
21034;SDS011;10676;50.848;3.272;2023-06-26T01:14:15;9.77;;;3.90;;
21034;SDS011;10676;50.848;3.272;2023-06-26T01:16:41;12.80;;;4.32;;
21034;SDS011;10676;50.848;3.272;2023-06-26T01:19:13;13.82;;;4.90;;
21034;SDS011;10676;50.848;3.272;2023-06-26T01:21:51;16.20;;;4.53;;
21034;SDS011;10676;50.848;3.272;2023-06-26T01:24:25;12.65;;;3.97;;
21034;SDS011;10676;50.848;3.272;2023-06-26T01:26:57;14.23;;;4.82;;
21034;SDS011;10676;50.848;3.272;2023-06-26T01:29:25;10.48;;;4.45;;
21034;SDS011;10676;50.848;3.272;2023-06-26T01:31:53;18.88;;;4.28;;
21034;SDS011;10676;50.848;3.272;2023-06-26T01:34:19;12.90;;;4.32;;
21034;SDS011;10676;50.848;3.272;2023-06-26T01:36:45;10.75;;;4.20;;
21034;SDS011;10676;50.848;3.272;2023-06-26T01:39:14;14.48;;;4.65;;
21034;SDS011;10676;50.848;3.272;2023-06-26T01:41:41;15.63;;;5.10;;
21034;SDS011;10676;50.848;3.272;2023-06-26T01:52:40;13.60;;;4.93;;
21034;SDS011;10676;50.848;3.272;2023-06-26T01:55:12;17.33;;;5.05;;
21034;SDS011;10676;50.848;3.272;2023-06-26T01:57:50;18.02;;;5.10;;
21034;SDS011;10676;50.848;3.272;2023-06-26T02:00:19;13.50;;;5.28;;
21034;SDS011;10676;50.848;3.272;2023-06-26T02:02:46;15.30;;;5.28;;
21034;SDS011;10676;50.848;3.272;2023-06-26T02:05:12;20.77;;;4.97;;
21034;SDS011;10676;50.848;3.272;2023-06-26T02:07:38;17.27;;;5.03;;
21034;SDS011;10676;50.848;3.272;2023-06-26T02:10:07;17.83;;;5.35;;
21034;SDS011;10676;50.848;3.272;2023-06-26T02:12:34;16.20;;;5.38;;
21034;SDS011;10676;50.848;3.272;2023-06-26T02:15:01;19.08;;;5.70;;
21034;SDS011;10676;50.848;3.272;2023-06-26T02:17:27;22.17;;;6.53;;
21034;SDS011;10676;50.848;3.272;2023-06-26T02:19:53;16.73;;;5.45;;
21034;SDS011;10676;50.848;3.272;2023-06-26T02:22:18;19.83;;;5.47;;
21034;SDS011;10676;50.848;3.272;2023-06-26T02:24:44;17.50;;;5.32;;
21034;SDS011;10676;50.848;3.272;2023-06-26T02:27:10;21.05;;;6.30;;
21034;SDS011;10676;50.848;3.272;2023-06-26T02:29:36;23.55;;;5.25;;
21034;SDS011;10676;50.848;3.272;2023-06-26T02:32:02;14.32;;;5.47;;
21034;SDS011;10676;50.848;3.272;2023-06-26T02:34:27;19.50;;;5.20;;
21034;SDS011;10676;50.848;3.272;2023-06-26T02:36:53;16.95;;;5.80;;
21034;SDS011;10676;50.848;3.272;2023-06-26T02:39:20;17.00;;;5.65;;
21034;SDS011;10676;50.848;3.272;2023-06-26T02:41:46;19.40;;;5.38;;
21034;SDS011;10676;50.848;3.272;2023-06-26T02:44:11;18.90;;;5.57;;
21034;SDS011;10676;50.848;3.272;2023-06-26T02:46:37;19.23;;;6.00;;
21034;SDS011;10676;50.848;3.272;2023-06-26T02:49:03;14.55;;;5.75;;
21034;SDS011;10676;50.848;3.272;2023-06-26T02:51:29;24.98;;;6.15;;
21034;SDS011;10676;50.848;3.272;2023-06-26T02:53:56;26.10;;;5.03;;
21034;SDS011;10676;50.848;3.272;2023-06-26T02:56:22;18.42;;;5.43;;
21034;SDS011;10676;50.848;3.272;2023-06-26T02:58:48;15.23;;;4.75;;
21034;SDS011;10676;50.848;3.272;2023-06-26T03:01:14;18.95;;;5.57;;
21034;SDS011;10676;50.848;3.272;2023-06-26T03:03:40;20.35;;;5.22;;
21034;SDS011;10676;50.848;3.272;2023-06-26T03:06:07;25.17;;;5.90;;
21034;SDS011;10676;50.848;3.272;2023-06-26T03:08:36;22.45;;;5.28;;
21034;SDS011;10676;50.848;3.272;2023-06-26T03:11:04;14.93;;;4.55;;
21034;SDS011;10676;50.848;3.272;2023-06-26T03:13:30;11.55;;;4.05;;
21034;SDS011;10676;50.848;3.272;2023-06-26T03:15:55;15.82;;;5.07;;
21034;SDS011;10676;50.848;3.272;2023-06-26T03:18:21;16.88;;;4.47;;
21034;SDS011;10676;50.848;3.272;2023-06-26T03:20:47;16.33;;;4.57;;
21034;SDS011;10676;50.848;3.272;2023-06-26T03:23:13;14.68;;;3.92;;
21034;SDS011;10676;50.848;3.272;2023-06-26T03:25:38;17.65;;;3.70;;
21034;SDS011;10676;50.848;3.272;2023-06-26T03:28:04;12.55;;;3.83;;
21034;SDS011;10676;50.848;3.272;2023-06-26T03:30:30;12.02;;;3.83;;
21034;SDS011;10676;50.848;3.272;2023-06-26T03:32:55;16.20;;;4.28;;
21034;SDS011;10676;50.848;3.272;2023-06-26T03:35:21;12.00;;;3.60;;
21034;SDS011;10676;50.848;3.272;2023-06-26T03:37:48;15.38;;;3.85;;
21034;SDS011;10676;50.848;3.272;2023-06-26T03:40:14;15.13;;;3.35;;
21034;SDS011;10676;50.848;3.272;2023-06-26T03:42:39;14.95;;;3.13;;
21034;SDS011;10676;50.848;3.272;2023-06-26T03:45:05;12.27;;;3.00;;
21034;SDS011;10676;50.848;3.272;2023-06-26T03:47:31;13.73;;;3.13;;
21034;SDS011;10676;50.848;3.272;2023-06-26T03:49:57;8.88;;;2.83;;
21034;SDS011;10676;50.848;3.272;2023-06-26T03:52:22;14.02;;;3.20;;
21034;SDS011;10676;50.848;3.272;2023-06-26T03:54:48;13.98;;;2.75;;
21034;SDS011;10676;50.848;3.272;2023-06-26T03:57:14;11.20;;;2.53;;
21034;SDS011;10676;50.848;3.272;2023-06-26T03:59:40;10.65;;;2.38;;
21034;SDS011;10676;50.848;3.272;2023-06-26T04:02:05;9.73;;;2.35;;
21034;SDS011;10676;50.848;3.272;2023-06-26T04:04:31;8.63;;;2.10;;
21034;SDS011;10676;50.848;3.272;2023-06-26T04:06:56;10.65;;;2.22;;
21034;SDS011;10676;50.848;3.272;2023-06-26T04:09:24;12.55;;;2.28;;
21034;SDS011;10676;50.848;3.272;2023-06-26T04:11:50;10.60;;;1.98;;
21034;SDS011;10676;50.848;3.272;2023-06-26T04:14:16;6.13;;;2.13;;
21034;SDS011;10676;50.848;3.272;2023-06-26T04:16:41;8.77;;;1.80;;
21034;SDS011;10676;50.848;3.272;2023-06-26T04:19:07;8.70;;;2.13;;
21034;SDS011;10676;50.848;3.272;2023-06-26T04:21:35;6.82;;;2.15;;
21034;SDS011;10676;50.848;3.272;2023-06-26T04:24:00;7.97;;;1.70;;
21034;SDS011;10676;50.848;3.272;2023-06-26T04:26:26;7.15;;;1.88;;
21034;SDS011;10676;50.848;3.272;2023-06-26T04:28:53;5.55;;;1.42;;
21034;SDS011;10676;50.848;3.272;2023-06-26T04:31:19;9.23;;;1.63;;
21034;SDS011;10676;50.848;3.272;2023-06-26T04:33:45;8.35;;;1.67;;
21034;SDS011;10676;50.848;3.272;2023-06-26T04:36:15;4.22;;;1.55;;
21034;SDS011;10676;50.848;3.272;2023-06-26T04:38:44;7.03;;;1.40;;
21034;SDS011;10676;50.848;3.272;2023-06-26T04:41:10;5.63;;;1.40;;
21034;SDS011;10676;50.848;3.272;2023-06-26T04:43:35;5.13;;;1.80;;
21034;SDS011;10676;50.848;3.272;2023-06-26T04:46:05;7.22;;;1.52;;
21034;SDS011;10676;50.848;3.272;2023-06-26T04:48:31;5.03;;;1.40;;
21034;SDS011;10676;50.848;3.272;2023-06-26T04:50:57;4.30;;;1.35;;
21034;SDS011;10676;50.848;3.272;2023-06-26T04:53:24;9.27;;;1.60;;
21034;SDS011;10676;50.848;3.272;2023-06-26T04:55:50;4.82;;;1.30;;
21034;SDS011;10676;50.848;3.272;2023-06-26T04:58:16;3.72;;;1.50;;
21034;SDS011;10676;50.848;3.272;2023-06-26T05:00:42;11.80;;;1.85;;
21034;SDS011;10676;50.848;3.272;2023-06-26T05:03:09;8.02;;;1.42;;
21034;SDS011;10676;50.848;3.272;2023-06-26T05:05:36;8.10;;;1.63;;
21034;SDS011;10676;50.848;3.272;2023-06-26T05:08:13;6.18;;;1.50;;
21034;SDS011;10676;50.848;3.272;2023-06-26T05:10:39;4.53;;;1.30;;
21034;SDS011;10676;50.848;3.272;2023-06-26T05:13:05;4.95;;;1.27;;
21034;SDS011;10676;50.848;3.272;2023-06-26T05:15:30;4.25;;;1.20;;
21034;SDS011;10676;50.848;3.272;2023-06-26T05:17:57;3.13;;;1.33;;
21034;SDS011;10676;50.848;3.272;2023-06-26T05:20:23;3.80;;;0.95;;
21034;SDS011;10676;50.848;3.272;2023-06-26T05:22:49;4.75;;;1.50;;
21034;SDS011;10676;50.848;3.272;2023-06-26T05:25:16;4.82;;;1.33;;
21034;SDS011;10676;50.848;3.272;2023-06-26T05:27:46;6.05;;;1.35;;
21034;SDS011;10676;50.848;3.272;2023-06-26T05:30:12;4.22;;;1.10;;
21034;SDS011;10676;50.848;3.272;2023-06-26T05:32:39;5.75;;;1.38;;
21034;SDS011;10676;50.848;3.272;2023-06-26T05:35:05;8.10;;;1.42;;
21034;SDS011;10676;50.848;3.272;2023-06-26T05:37:32;4.82;;;1.63;;
21034;SDS011;10676;50.848;3.272;2023-06-26T05:39:58;4.68;;;1.50;;
21034;SDS011;10676;50.848;3.272;2023-06-26T05:42:24;3.90;;;1.20;;
21034;SDS011;10676;50.848;3.272;2023-06-26T05:44:51;2.67;;;1.02;;
21034;SDS011;10676;50.848;3.272;2023-06-26T05:47:16;6.57;;;1.52;;
21034;SDS011;10676;50.848;3.272;2023-06-26T05:49:42;5.97;;;1.67;;
21034;SDS011;10676;50.848;3.272;2023-06-26T05:52:08;3.33;;;1.40;;
21034;SDS011;10676;50.848;3.272;2023-06-26T05:54:34;5.10;;;1.52;;
21034;SDS011;10676;50.848;3.272;2023-06-26T05:57:02;4.07;;;1.10;;
21034;SDS011;10676;50.848;3.272;2023-06-26T05:59:32;3.90;;;1.05;;
21034;SDS011;10676;50.848;3.272;2023-06-26T06:01:58;5.47;;;1.38;;
21034;SDS011;10676;50.848;3.272;2023-06-26T06:04:26;7.95;;;1.40;;
21034;SDS011;10676;50.848;3.272;2023-06-26T06:06:52;4.97;;;1.65;;
21034;SDS011;10676;50.848;3.272;2023-06-26T06:09:18;4.53;;;1.20;;
21034;SDS011;10676;50.848;3.272;2023-06-26T06:11:44;6.07;;;1.30;;
21034;SDS011;10676;50.848;3.272;2023-06-26T06:14:10;6.05;;;1.60;;
21034;SDS011;10676;50.848;3.272;2023-06-26T06:16:35;3.58;;;1.33;;
21034;SDS011;10676;50.848;3.272;2023-06-26T06:19:01;5.78;;;1.35;;
21034;SDS011;10676;50.848;3.272;2023-06-26T06:21:28;5.45;;;1.38;;
21034;SDS011;10676;50.848;3.272;2023-06-26T06:23:54;4.75;;;1.75;;
21034;SDS011;10676;50.848;3.272;2023-06-26T06:26:20;4.72;;;1.23;;
21034;SDS011;10676;50.848;3.272;2023-06-26T06:28:45;3.78;;;1.55;;
21034;SDS011;10676;50.848;3.272;2023-06-26T06:31:11;5.82;;;1.73;;
21034;SDS011;10676;50.848;3.272;2023-06-26T06:33:37;9.32;;;1.70;;
21034;SDS011;10676;50.848;3.272;2023-06-26T06:36:02;5.45;;;1.30;;
21034;SDS011;10676;50.848;3.272;2023-06-26T06:38:28;6.47;;;1.48;;
21034;SDS011;10676;50.848;3.272;2023-06-26T06:40:54;5.32;;;1.50;;
21034;SDS011;10676;50.848;3.272;2023-06-26T06:43:20;7.55;;;1.83;;
21034;SDS011;10676;50.848;3.272;2023-06-26T06:45:45;4.25;;;1.70;;
21034;SDS011;10676;50.848;3.272;2023-06-26T06:48:11;4.55;;;1.48;;
21034;SDS011;10676;50.848;3.272;2023-06-26T06:50:40;5.25;;;1.60;;
21034;SDS011;10676;50.848;3.272;2023-06-26T06:53:06;3.20;;;1.52;;
21034;SDS011;10676;50.848;3.272;2023-06-26T06:55:33;9.68;;;2.00;;
21034;SDS011;10676;50.848;3.272;2023-06-26T06:57:59;5.85;;;1.50;;
21034;SDS011;10676;50.848;3.272;2023-06-26T07:00:24;9.50;;;1.65;;
21034;SDS011;10676;50.848;3.272;2023-06-26T07:02:50;4.22;;;1.55;;
21034;SDS011;10676;50.848;3.272;2023-06-26T07:05:16;5.60;;;1.55;;
21034;SDS011;10676;50.848;3.272;2023-06-26T07:07:42;4.75;;;1.50;;
21034;SDS011;10676;50.848;3.272;2023-06-26T07:10:08;5.57;;;1.50;;
21034;SDS011;10676;50.848;3.272;2023-06-26T07:12:35;4.57;;;1.48;;
21034;SDS011;10676;50.848;3.272;2023-06-26T07:15:02;4.93;;;1.33;;
21034;SDS011;10676;50.848;3.272;2023-06-26T07:17:29;5.13;;;1.30;;
21034;SDS011;10676;50.848;3.272;2023-06-26T07:19:57;7.45;;;1.50;;
21034;SDS011;10676;50.848;3.272;2023-06-26T07:22:24;4.47;;;1.42;;
21034;SDS011;10676;50.848;3.272;2023-06-26T07:24:50;5.75;;;1.70;;
21034;SDS011;10676;50.848;3.272;2023-06-26T07:27:15;4.50;;;1.40;;
21034;SDS011;10676;50.848;3.272;2023-06-26T07:29:45;5.90;;;1.45;;
21034;SDS011;10676;50.848;3.272;2023-06-26T07:32:11;4.80;;;1.45;;
21034;SDS011;10676;50.848;3.272;2023-06-26T07:34:37;5.25;;;1.55;;
21034;SDS011;10676;50.848;3.272;2023-06-26T07:37:03;7.18;;;1.63;;
21034;SDS011;10676;50.848;3.272;2023-06-26T07:39:30;4.13;;;1.30;;
21034;SDS011;10676;50.848;3.272;2023-06-26T07:41:57;5.60;;;1.50;;
21034;SDS011;10676;50.848;3.272;2023-06-26T07:44:25;4.07;;;1.35;;
21034;SDS011;10676;50.848;3.272;2023-06-26T07:46:51;7.22;;;1.60;;
21034;SDS011;10676;50.848;3.272;2023-06-26T07:49:18;6.32;;;1.27;;
21034;SDS011;10676;50.848;3.272;2023-06-26T07:51:53;8.10;;;1.90;;
21034;SDS011;10676;50.848;3.272;2023-06-26T07:54:19;3.90;;;1.50;;
21034;SDS011;10676;50.848;3.272;2023-06-26T07:56:54;4.22;;;1.55;;
21034;SDS011;10676;50.848;3.272;2023-06-26T07:59:22;5.35;;;1.58;;
21034;SDS011;10676;50.848;3.272;2023-06-26T08:01:52;4.78;;;1.65;;
21034;SDS011;10676;50.848;3.272;2023-06-26T08:04:19;4.93;;;1.45;;
21034;SDS011;10676;50.848;3.272;2023-06-26T08:06:49;3.05;;;1.40;;
21034;SDS011;10676;50.848;3.272;2023-06-26T08:09:16;3.15;;;1.23;;
21034;SDS011;10676;50.848;3.272;2023-06-26T08:11:43;7.72;;;1.40;;
21034;SDS011;10676;50.848;3.272;2023-06-26T08:14:09;9.63;;;1.80;;
21034;SDS011;10676;50.848;3.272;2023-06-26T08:16:37;4.57;;;1.48;;
21034;SDS011;10676;50.848;3.272;2023-06-26T08:19:03;5.93;;;1.48;;
21034;SDS011;10676;50.848;3.272;2023-06-26T08:21:29;5.85;;;1.60;;
21034;SDS011;10676;50.848;3.272;2023-06-26T08:23:58;3.92;;;1.60;;
21034;SDS011;10676;50.848;3.272;2023-06-26T08:26:23;3.33;;;1.30;;
21034;SDS011;10676;50.848;3.272;2023-06-26T08:28:49;5.63;;;1.50;;
21034;SDS011;10676;50.848;3.272;2023-06-26T08:31:15;4.05;;;1.50;;
21034;SDS011;10676;50.848;3.272;2023-06-26T08:33:42;5.40;;;1.20;;
21034;SDS011;10676;50.848;3.272;2023-06-26T08:36:07;2.65;;;1.00;;
21034;SDS011;10676;50.848;3.272;2023-06-26T08:38:33;5.30;;;1.13;;
21034;SDS011;10676;50.848;3.272;2023-06-26T08:40:59;2.80;;;1.00;;
21034;SDS011;10676;50.848;3.272;2023-06-26T08:43:25;3.70;;;1.00;;
21034;SDS011;10676;50.848;3.272;2023-06-26T08:45:52;6.20;;;1.60;;
21034;SDS011;10676;50.848;3.272;2023-06-26T08:48:18;3.72;;;1.30;;
21034;SDS011;10676;50.848;3.272;2023-06-26T08:50:48;6.38;;;1.70;;
21034;SDS011;10676;50.848;3.272;2023-06-26T08:53:29;8.00;;;1.58;;
21034;SDS011;10676;50.848;3.272;2023-06-26T08:56:05;4.15;;;1.48;;
21034;SDS011;10676;50.848;3.272;2023-06-26T08:58:33;3.80;;;1.45;;
21034;SDS011;10676;50.848;3.272;2023-06-26T09:01:01;2.30;;;1.23;;
21034;SDS011;10676;50.848;3.272;2023-06-26T09:03:29;4.97;;;1.30;;
21034;SDS011;10676;50.848;3.272;2023-06-26T09:05:55;4.20;;;1.30;;
21034;SDS011;10676;50.848;3.272;2023-06-26T09:08:21;4.10;;;1.25;;
21034;SDS011;10676;50.848;3.272;2023-06-26T09:10:47;3.22;;;1.30;;
21034;SDS011;10676;50.848;3.272;2023-06-26T09:13:12;1.33;;;0.73;;
21034;SDS011;10676;50.848;3.272;2023-06-26T09:15:38;7.88;;;1.60;;
21034;SDS011;10676;50.848;3.272;2023-06-26T09:18:08;5.25;;;1.30;;
21034;SDS011;10676;50.848;3.272;2023-06-26T09:20:34;6.10;;;1.27;;
21034;SDS011;10676;50.848;3.272;2023-06-26T09:23:00;4.18;;;1.10;;
21034;SDS011;10676;50.848;3.272;2023-06-26T09:25:27;2.65;;;1.00;;
21034;SDS011;10676;50.848;3.272;2023-06-26T09:27:54;2.05;;;1.17;;
21034;SDS011;10676;50.848;3.272;2023-06-26T09:30:20;6.07;;;1.10;;
21034;SDS011;10676;50.848;3.272;2023-06-26T09:32:46;2.38;;;1.05;;
21034;SDS011;10676;50.848;3.272;2023-06-26T09:35:12;3.72;;;1.13;;
21034;SDS011;10676;50.848;3.272;2023-06-26T09:37:40;3.05;;;1.20;;
21034;SDS011;10676;50.848;3.272;2023-06-26T09:40:06;3.70;;;1.05;;
21034;SDS011;10676;50.848;3.272;2023-06-26T09:42:35;2.53;;;0.95;;
21034;SDS011;10676;50.848;3.272;2023-06-26T09:45:02;5.15;;;0.95;;
21034;SDS011;10676;50.848;3.272;2023-06-26T09:47:43;3.72;;;1.00;;
21034;SDS011;10676;50.848;3.272;2023-06-26T09:50:27;3.35;;;1.15;;
21034;SDS011;10676;50.848;3.272;2023-06-26T09:52:52;4.45;;;1.38;;
21034;SDS011;10676;50.848;3.272;2023-06-26T09:55:19;3.67;;;1.17;;
21034;SDS011;10676;50.848;3.272;2023-06-26T09:57:49;6.57;;;1.20;;
21034;SDS011;10676;50.848;3.272;2023-06-26T10:00:16;4.70;;;1.10;;
21034;SDS011;10676;50.848;3.272;2023-06-26T10:02:42;3.00;;;1.20;;
21034;SDS011;10676;50.848;3.272;2023-06-26T10:05:08;3.58;;;1.20;;
21034;SDS011;10676;50.848;3.272;2023-06-26T10:07:34;5.25;;;1.45;;
21034;SDS011;10676;50.848;3.272;2023-06-26T10:10:02;2.85;;;1.00;;
21034;SDS011;10676;50.848;3.272;2023-06-26T10:12:29;2.08;;;0.85;;
21034;SDS011;10676;50.848;3.272;2023-06-26T10:14:57;2.63;;;1.20;;
21034;SDS011;10676;50.848;3.272;2023-06-26T10:17:26;2.83;;;1.10;;
21034;SDS011;10676;50.848;3.272;2023-06-26T10:19:54;2.67;;;1.25;;
21034;SDS011;10676;50.848;3.272;2023-06-26T10:22:24;2.38;;;1.10;;
21034;SDS011;10676;50.848;3.272;2023-06-26T10:24:54;3.42;;;1.10;;
21034;SDS011;10676;50.848;3.272;2023-06-26T10:27:24;4.38;;;1.08;;
21034;SDS011;10676;50.848;3.272;2023-06-26T10:30:20;4.32;;;1.00;;
21034;SDS011;10676;50.848;3.272;2023-06-26T10:33:06;3.17;;;0.95;;
21034;SDS011;10676;50.848;3.272;2023-06-26T10:35:33;3.33;;;0.90;;
21034;SDS011;10676;50.848;3.272;2023-06-26T10:38:02;2.92;;;0.90;;
21034;SDS011;10676;50.848;3.272;2023-06-26T10:40:47;2.83;;;1.17;;
21034;SDS011;10676;50.848;3.272;2023-06-26T10:43:14;2.78;;;0.93;;
21034;SDS011;10676;50.848;3.272;2023-06-26T10:45:47;3.28;;;1.05;;
21034;SDS011;10676;50.848;3.272;2023-06-26T10:48:20;2.78;;;1.10;;
21034;SDS011;10676;50.848;3.272;2023-06-26T10:50:49;5.35;;;1.08;;
21034;SDS011;10676;50.848;3.272;2023-06-26T10:55:59;4.53;;;0.95;;
21034;SDS011;10676;50.848;3.272;2023-06-26T10:58:30;4.05;;;1.00;;
21034;SDS011;10676;50.848;3.272;2023-06-26T11:03:38;3.83;;;1.00;;
21034;SDS011;10676;50.848;3.272;2023-06-26T11:06:14;4.32;;;1.30;;
21034;SDS011;10676;50.848;3.272;2023-06-26T11:09:43;2.60;;;0.88;;
21034;SDS011;10676;50.848;3.272;2023-06-26T11:14:17;2.15;;;1.00;;
21034;SDS011;10676;50.848;3.272;2023-06-26T11:16:44;1.60;;;0.80;;
21034;SDS011;10676;50.848;3.272;2023-06-26T11:19:10;2.30;;;0.80;;
21034;SDS011;10676;50.848;3.272;2023-06-26T11:21:39;2.35;;;0.80;;
21034;SDS011;10676;50.848;3.272;2023-06-26T11:24:06;5.22;;;1.13;;
21034;SDS011;10676;50.848;3.272;2023-06-26T11:26:37;2.38;;;1.00;;
21034;SDS011;10676;50.848;3.272;2023-06-26T11:29:04;2.60;;;0.88;;
21034;SDS011;10676;50.848;3.272;2023-06-26T11:31:32;2.75;;;1.00;;
21034;SDS011;10676;50.848;3.272;2023-06-26T11:34:00;3.35;;;1.00;;
21034;SDS011;10676;50.848;3.272;2023-06-26T11:36:28;4.60;;;1.10;;
21034;SDS011;10676;50.848;3.272;2023-06-26T11:41:21;8.50;;;1.00;;
21034;SDS011;10676;50.848;3.272;2023-06-26T11:43:48;3.78;;;1.27;;
21034;SDS011;10676;50.848;3.272;2023-06-26T11:46:16;2.50;;;0.80;;
21034;SDS011;10676;50.848;3.272;2023-06-26T11:48:43;2.15;;;0.90;;
21034;SDS011;10676;50.848;3.272;2023-06-26T11:51:09;1.60;;;0.70;;
21034;SDS011;10676;50.848;3.272;2023-06-26T11:53:40;1.73;;;0.70;;
21034;SDS011;10676;50.848;3.272;2023-06-26T11:56:11;2.80;;;0.90;;
21034;SDS011;10676;50.848;3.272;2023-06-26T12:01:38;1.77;;;1.00;;
21034;SDS011;10676;50.848;3.272;2023-06-26T12:04:06;2.00;;;0.70;;
21034;SDS011;10676;50.848;3.272;2023-06-26T12:06:33;1.33;;;0.70;;
21034;SDS011;10676;50.848;3.272;2023-06-26T12:09:01;1.45;;;0.80;;
21034;SDS011;10676;50.848;3.272;2023-06-26T12:11:30;2.08;;;0.90;;
21034;SDS011;10676;50.848;3.272;2023-06-26T12:13:56;5.07;;;0.80;;
21034;SDS011;10676;50.848;3.272;2023-06-26T12:16:22;5.55;;;0.88;;
21034;SDS011;10676;50.848;3.272;2023-06-26T12:18:58;2.17;;;0.75;;
21034;SDS011;10676;50.848;3.272;2023-06-26T12:24:12;4.78;;;0.85;;
21034;SDS011;10676;50.848;3.272;2023-06-26T12:26:41;3.78;;;0.70;;
21034;SDS011;10676;50.848;3.272;2023-06-26T12:29:11;1.67;;;0.63;;
21034;SDS011;10676;50.848;3.272;2023-06-26T12:31:53;2.88;;;0.70;;
21034;SDS011;10676;50.848;3.272;2023-06-26T12:34:19;3.80;;;0.75;;
21034;SDS011;10676;50.848;3.272;2023-06-26T12:36:49;1.38;;;0.80;;
21034;SDS011;10676;50.848;3.272;2023-06-26T12:39:16;2.10;;;0.73;;
21034;SDS011;10676;50.848;3.272;2023-06-26T12:41:47;5.95;;;0.80;;
21034;SDS011;10676;50.848;3.272;2023-06-26T12:44:25;3.67;;;1.15;;
21034;SDS011;10676;50.848;3.272;2023-06-26T12:46:56;3.28;;;0.88;;
21034;SDS011;10676;50.848;3.272;2023-06-26T12:52:02;8.00;;;1.38;;
21034;SDS011;10676;50.848;3.272;2023-06-26T12:54:35;3.63;;;0.93;;
21034;SDS011;10676;50.848;3.272;2023-06-26T12:57:02;3.95;;;0.90;;
21034;SDS011;10676;50.848;3.272;2023-06-26T12:59:31;3.00;;;0.90;;
21034;SDS011;10676;50.848;3.272;2023-06-26T13:01:59;2.88;;;1.00;;
21034;SDS011;10676;50.848;3.272;2023-06-26T13:04:25;4.10;;;0.93;;
21034;SDS011;10676;50.848;3.272;2023-06-26T13:06:51;3.00;;;0.90;;
21034;SDS011;10676;50.848;3.272;2023-06-26T13:09:19;10.35;;;1.00;;
21034;SDS011;10676;50.848;3.272;2023-06-26T13:11:45;1.70;;;0.80;;
21034;SDS011;10676;50.848;3.272;2023-06-26T13:14:11;1.92;;;0.90;;
21034;SDS011;10676;50.848;3.272;2023-06-26T13:16:37;5.55;;;1.30;;
21034;SDS011;10676;50.848;3.272;2023-06-26T13:19:03;6.65;;;1.10;;
21034;SDS011;10676;50.848;3.272;2023-06-26T13:21:29;3.05;;;1.30;;
21034;SDS011;10676;50.848;3.272;2023-06-26T13:23:55;6.53;;;1.33;;
21034;SDS011;10676;50.848;3.272;2023-06-26T13:26:21;3.35;;;1.17;;
21034;SDS011;10676;50.848;3.272;2023-06-26T13:28:48;2.15;;;1.10;;
21034;SDS011;10676;50.848;3.272;2023-06-26T13:31:14;5.68;;;1.20;;
21034;SDS011;10676;50.848;3.272;2023-06-26T13:33:39;3.55;;;1.10;;
21034;SDS011;10676;50.848;3.272;2023-06-26T13:36:05;2.45;;;0.93;;
21034;SDS011;10676;50.848;3.272;2023-06-26T13:38:32;3.75;;;1.08;;
21034;SDS011;10676;50.848;3.272;2023-06-26T13:40:59;7.40;;;1.27;;
21034;SDS011;10676;50.848;3.272;2023-06-26T13:43:28;4.35;;;1.00;;
21034;SDS011;10676;50.848;3.272;2023-06-26T13:45:56;2.65;;;1.05;;
21034;SDS011;10676;50.848;3.272;2023-06-26T13:48:23;3.97;;;1.17;;
21034;SDS011;10676;50.848;3.272;2023-06-26T13:50:51;3.95;;;1.27;;
21034;SDS011;10676;50.848;3.272;2023-06-26T13:53:18;4.22;;;0.90;;
21034;SDS011;10676;50.848;3.272;2023-06-26T13:55:44;2.28;;;0.98;;
21034;SDS011;10676;50.848;3.272;2023-06-26T13:58:09;5.15;;;1.30;;
21034;SDS011;10676;50.848;3.272;2023-06-26T14:00:36;1.38;;;0.95;;
21034;SDS011;10676;50.848;3.272;2023-06-26T14:03:05;1.67;;;0.95;;
21034;SDS011;10676;50.848;3.272;2023-06-26T14:05:36;2.92;;;0.98;;
21034;SDS011;10676;50.848;3.272;2023-06-26T14:08:03;3.58;;;1.00;;
21034;SDS011;10676;50.848;3.272;2023-06-26T14:10:29;3.97;;;1.08;;
21034;SDS011;10676;50.848;3.272;2023-06-26T14:12:56;2.70;;;0.88;;
21034;SDS011;10676;50.848;3.272;2023-06-26T14:15:22;2.47;;;0.93;;
21034;SDS011;10676;50.848;3.272;2023-06-26T14:17:48;7.22;;;1.33;;
21034;SDS011;10676;50.848;3.272;2023-06-26T14:20:15;5.88;;;1.15;;
21034;SDS011;10676;50.848;3.272;2023-06-26T14:22:42;5.43;;;0.80;;
21034;SDS011;10676;50.848;3.272;2023-06-26T14:25:09;2.35;;;1.10;;
21034;SDS011;10676;50.848;3.272;2023-06-26T14:27:36;5.10;;;0.90;;
21034;SDS011;10676;50.848;3.272;2023-06-26T14:30:05;2.03;;;0.80;;
21034;SDS011;10676;50.848;3.272;2023-06-26T14:32:32;6.35;;;1.02;;
21034;SDS011;10676;50.848;3.272;2023-06-26T14:34:58;2.00;;;1.00;;
21034;SDS011;10676;50.848;3.272;2023-06-26T14:37:24;2.28;;;0.90;;
21034;SDS011;10676;50.848;3.272;2023-06-26T14:39:51;3.50;;;1.17;;
21034;SDS011;10676;50.848;3.272;2023-06-26T14:42:16;2.95;;;1.05;;
21034;SDS011;10676;50.848;3.272;2023-06-26T14:44:42;4.05;;;0.80;;
21034;SDS011;10676;50.848;3.272;2023-06-26T14:47:08;3.85;;;1.10;;
21034;SDS011;10676;50.848;3.272;2023-06-26T14:49:33;1.58;;;0.80;;
21034;SDS011;10676;50.848;3.272;2023-06-26T14:52:01;3.13;;;0.90;;
21034;SDS011;10676;50.848;3.272;2023-06-26T14:54:26;2.65;;;0.75;;
21034;SDS011;10676;50.848;3.272;2023-06-26T14:56:52;3.60;;;1.00;;
21034;SDS011;10676;50.848;3.272;2023-06-26T14:59:17;3.90;;;1.00;;
21034;SDS011;10676;50.848;3.272;2023-06-26T15:01:43;4.18;;;1.10;;
21034;SDS011;10676;50.848;3.272;2023-06-26T15:04:09;1.95;;;0.95;;
21034;SDS011;10676;50.848;3.272;2023-06-26T15:06:35;2.55;;;1.00;;
21034;SDS011;10676;50.848;3.272;2023-06-26T15:09:00;2.78;;;1.17;;
21034;SDS011;10676;50.848;3.272;2023-06-26T15:11:28;2.95;;;1.00;;
21034;SDS011;10676;50.848;3.272;2023-06-26T15:13:54;3.80;;;1.30;;